createdAt,value
2019-04-21T00:03:23.288Z,16.20
2019-04-21T00:08:03.621Z,16.10
2019-04-21T00:12:18.221Z,16.00
2019-04-21T00:16:25.577Z,16.00
2019-04-21T00:20:44.876Z,16.00
2019-04-21T00:25:14.942Z,15.90
2019-04-21T00:29:42.527Z,15.90
2019-04-21T00:33:41.629Z,15.80
2019-04-21T00:38:22.794Z,15.70
2019-04-21T00:42:40.252Z,15.70
2019-04-21T00:47:00.598Z,15.60
2019-04-21T00:51:40.509Z,15.50
2019-04-21T00:55:57.328Z,15.50
2019-04-21T01:00:18.744Z,15.40
2019-04-21T01:04:44.862Z,15.30
2019-04-21T01:09:00.541Z,15.20
2019-04-21T01:13:23.518Z,15.10
2019-04-21T01:17:35.248Z,15.00
2019-04-21T01:21:37.504Z,14.90
2019-04-21T01:26:12.172Z,14.80
2019-04-21T01:30:34.327Z,14.70
2019-04-21T01:35:01.192Z,14.70
2019-04-21T01:39:20.168Z,14.60
2019-04-21T01:43:33.504Z,14.50
2019-04-21T01:47:59.294Z,14.40
2019-04-21T01:52:24.545Z,14.30
2019-04-21T01:56:49.739Z,14.30
2019-04-21T02:01:05.738Z,14.20
2019-04-21T02:05:37.538Z,14.20
2019-04-21T02:09:50.993Z,14.20
2019-04-21T02:14:09.950Z,14.10
2019-04-21T02:18:27.657Z,14.10
2019-04-21T02:23:06.049Z,14.00
2019-04-21T02:27:14.841Z,14.00
2019-04-21T02:36:15.380Z,13.90
2019-04-21T02:40:22.319Z,13.90
2019-04-21T02:44:43.294Z,13.80
2019-04-21T02:49:04.151Z,13.80
2019-04-21T02:53:27.048Z,13.70
2019-04-21T02:57:49.444Z,13.70
2019-04-21T03:07:11.326Z,13.60
2019-04-21T03:11:14.081Z,13.50
2019-04-21T03:15:47.395Z,13.40
2019-04-21T03:24:17.488Z,13.30
2019-04-21T03:28:39.697Z,13.30
2019-04-21T03:33:48.835Z,13.20
2019-04-21T03:37:23.154Z,13.10
2019-04-21T03:41:48.813Z,13.10
2019-04-21T03:46:02.158Z,13.00
2019-04-21T03:59:45.093Z,12.90
2019-04-21T04:04:28.418Z,12.80
2019-04-21T04:13:14.472Z,12.70
2019-04-21T04:17:32.951Z,12.60
2019-04-21T04:22:14.645Z,12.50
2019-04-21T04:30:38.250Z,12.40
2019-04-21T04:35:03.793Z,12.30
2019-04-21T04:48:19.432Z,12.20
2019-04-21T04:57:20.256Z,12.30
2019-04-21T05:01:29.938Z,12.30
2019-04-21T05:06:04.897Z,12.60
2019-04-21T05:10:22.697Z,13.10
2019-04-21T05:14:39.366Z,13.90
2019-04-21T05:19:04.167Z,14.70
2019-04-21T05:23:06.319Z,15.50
2019-04-21T05:27:48.261Z,16.40
2019-04-21T05:32:32.815Z,17.30
2019-04-21T05:37:07.236Z,18.30
2019-04-21T05:41:18.219Z,19.20
2019-04-21T05:46:12.423Z,20.10
2019-04-21T05:50:06.252Z,20.90
2019-04-21T05:54:39.067Z,21.70
2019-04-21T05:58:49.650Z,22.40
2019-04-21T06:03:15.142Z,23.10
2019-04-21T06:07:37.873Z,23.80
2019-04-21T06:11:58.003Z,24.40
2019-04-21T06:16:14.757Z,25.10
2019-04-21T06:20:33.444Z,25.60
2019-04-21T06:25:20.921Z,26.00
2019-04-21T06:29:18.494Z,26.40
2019-04-21T06:33:40.295Z,26.90
2019-04-21T06:37:56.528Z,27.50
2019-04-21T06:42:13.547Z,28.10
2019-04-21T06:51:04.918Z,28.60
2019-04-21T06:55:20.373Z,28.90
2019-04-21T06:59:34.154Z,29.30
2019-04-21T07:04:08.112Z,29.80
2019-04-21T07:12:37.069Z,30.80
2019-04-21T07:16:57.850Z,31.20
2019-04-21T07:21:15.826Z,31.70
2019-04-21T07:25:40.861Z,32.10
2019-04-21T07:29:58.582Z,32.50
2019-04-21T07:34:21.643Z,32.80
2019-04-21T07:38:36.571Z,33.20
2019-04-21T07:42:51.348Z,33.30
2019-04-21T07:47:23.419Z,33.60
2019-04-21T07:56:06.272Z,33.90
2019-04-21T08:00:45.033Z,34.20
2019-04-21T08:05:07.544Z,34.50
2019-04-21T08:09:22.933Z,34.60
2019-04-21T08:13:41.549Z,34.80
2019-04-21T08:18:00.703Z,35.00
2019-04-21T08:22:17.068Z,35.30
2019-04-21T08:31:01.321Z,35.80
2019-04-21T08:39:49.405Z,36.20
2019-04-21T08:43:57.958Z,36.30
2019-04-21T08:48:17.072Z,36.40
2019-04-21T08:52:49.294Z,36.50
2019-04-21T08:57:21.693Z,36.60
2019-04-21T09:02:12.475Z,36.60
2019-04-21T09:06:51.268Z,36.60
2019-04-21T09:10:49.810Z,36.70
2019-04-21T09:15:11.491Z,36.90
2019-04-21T09:19:40.887Z,37.10
2019-04-21T09:23:50.850Z,37.30
2019-04-21T09:28:04.025Z,37.50
2019-04-21T09:32:18.227Z,37.70
2019-04-21T09:36:40.267Z,37.60
2019-04-21T09:40:54.515Z,37.50
2019-04-21T09:45:13.935Z,37.30
2019-04-21T09:49:35.364Z,37.20
2019-04-21T09:54:01.191Z,37.00
2019-04-21T09:58:24.011Z,36.90
2019-04-21T10:02:42.604Z,37.10
2019-04-21T10:06:54.516Z,37.40
2019-04-21T10:11:14.163Z,37.70
2019-04-21T10:15:33.223Z,38.00
2019-04-21T10:19:52.828Z,38.10
2019-04-21T10:24:12.503Z,38.10
2019-04-21T10:28:32.927Z,37.90
2019-04-21T10:32:52.449Z,37.70
2019-04-21T10:37:11.413Z,37.40
2019-04-21T10:41:29.885Z,37.20
2019-04-21T10:45:48.764Z,36.90
2019-04-21T10:50:08.990Z,36.70
2019-04-21T10:54:47.818Z,36.70
2019-04-21T10:58:50.013Z,36.60
2019-04-21T11:03:35.366Z,36.50
2019-04-21T11:08:08.954Z,36.30
2019-04-21T11:12:15.980Z,36.20
2019-04-21T11:16:35.185Z,36.20
2019-04-21T11:20:53.655Z,36.20
2019-04-21T11:25:12.868Z,36.10
2019-04-21T11:29:32.970Z,35.90
2019-04-21T11:33:51.590Z,35.70
2019-04-21T11:38:19.028Z,35.70
2019-04-21T11:42:37.808Z,35.70
2019-04-21T11:46:56.655Z,35.80
2019-04-21T11:51:17.104Z,35.70
2019-04-21T11:55:39.768Z,35.70
2019-04-21T11:59:55.734Z,35.70
2019-04-21T12:04:15.962Z,35.70
2019-04-21T12:08:40.381Z,35.60
2019-04-21T12:12:55.186Z,35.50
2019-04-21T12:17:14.215Z,35.40
2019-04-21T12:21:47.908Z,35.40
2019-04-21T12:25:53.002Z,35.40
2019-04-21T12:30:13.908Z,35.30
2019-04-21T12:34:32.351Z,35.30
2019-04-21T12:38:55.789Z,35.10
2019-04-21T12:43:11.042Z,35.00
2019-04-21T12:47:30.202Z,34.90
2019-04-21T12:51:48.697Z,34.90
2019-04-21T12:56:07.576Z,34.90
2019-04-21T13:00:27.054Z,34.80
2019-04-21T13:04:46.122Z,34.70
2019-04-21T13:09:10.711Z,34.70
2019-04-21T13:13:28.144Z,34.70
2019-04-21T13:17:47.422Z,34.60
2019-04-21T13:22:06.236Z,34.40
2019-04-21T13:26:34.474Z,34.20
2019-04-21T13:30:44.576Z,34.00
2019-04-21T13:35:03.374Z,33.70
2019-04-21T13:40:14.724Z,33.50
2019-04-21T13:44:15.681Z,33.10
2019-04-21T13:48:34.952Z,32.70
2019-04-21T13:52:54.482Z,32.30
2019-04-21T13:57:14.328Z,32.00
2019-04-21T14:01:33.999Z,31.80
2019-04-21T14:05:54.025Z,31.60
2019-04-21T14:10:16.098Z,31.40
2019-04-21T14:14:36.601Z,31.10
2019-04-21T14:18:55.178Z,30.90
2019-04-21T14:23:23.121Z,30.60
2019-04-21T14:27:34.359Z,30.30
2019-04-21T14:31:52.700Z,30.00
2019-04-21T14:36:11.029Z,29.80
2019-04-21T14:40:33.246Z,29.60
2019-04-21T14:44:51.203Z,29.50
2019-04-21T14:49:17.256Z,29.20
2019-04-21T14:53:57.598Z,29.00
2019-04-21T14:58:17.100Z,28.90
2019-04-21T15:02:36.031Z,28.70
2019-04-21T15:06:55.095Z,28.50
2019-04-21T15:11:16.075Z,28.40
2019-04-21T15:15:34.499Z,28.20
2019-04-21T15:19:59.765Z,28.10
2019-04-21T15:24:16.127Z,28.00
2019-04-21T15:28:37.251Z,27.90
2019-04-21T15:32:54.786Z,27.80
2019-04-21T15:37:13.709Z,27.70
2019-04-21T15:41:32.425Z,27.70
2019-04-21T15:45:50.852Z,27.60
2019-04-21T15:50:14.272Z,27.50
2019-04-21T15:54:32.323Z,27.50
2019-04-21T15:59:08.452Z,27.50
2019-04-21T16:03:27.245Z,27.40
2019-04-21T16:07:45.529Z,27.30
2019-04-21T16:12:04.179Z,27.30
2019-04-21T16:16:25.480Z,27.20
2019-04-21T16:20:43.838Z,27.20
2019-04-21T16:25:03.347Z,27.10
2019-04-21T16:29:22.997Z,27.00
2019-04-21T16:33:43.233Z,27.00
2019-04-21T16:38:02.842Z,26.90
2019-04-21T16:42:22.642Z,26.90
2019-04-21T16:46:41.394Z,26.80
2019-04-21T16:51:01.634Z,26.70
2019-04-21T16:55:29.115Z,26.60
2019-04-21T16:59:52.654Z,26.60
2019-04-21T17:04:12.798Z,26.50
2019-04-21T17:08:31.809Z,26.40
2019-04-21T17:12:51.315Z,26.40
2019-04-21T17:17:32.420Z,26.30
2019-04-21T17:21:31.940Z,26.20
2019-04-21T17:25:50.917Z,26.10
2019-04-21T17:30:12.737Z,26.00
2019-04-21T17:34:33.703Z,25.90
2019-04-21T17:38:52.279Z,25.80
2019-04-21T17:43:14.365Z,25.70
2019-04-21T17:47:44.314Z,25.60
2019-04-21T17:52:36.698Z,25.40
2019-04-21T17:57:11.242Z,25.30
2019-04-21T18:01:35.338Z,25.10
2019-04-21T18:05:47.499Z,25.00
2019-04-21T18:10:10.013Z,24.80
2019-04-21T18:14:13.681Z,24.50
2019-04-21T18:18:32.944Z,24.40
2019-04-21T18:23:19.294Z,24.10
2019-04-21T18:27:29.837Z,24.00
2019-04-21T18:31:51.936Z,23.80
2019-04-21T18:36:34.087Z,23.60
2019-04-21T18:40:51.320Z,23.40
2019-04-21T18:45:48.007Z,23.20
2019-04-21T18:49:45.956Z,23.10
2019-04-21T18:54:29.919Z,23.00
2019-04-21T18:58:32.570Z,22.80
2019-04-21T19:02:55.946Z,22.70
2019-04-21T19:07:25.464Z,22.60
2019-04-21T19:11:51.847Z,22.50
2019-04-21T19:16:33.658Z,22.40
2019-04-21T19:20:30.073Z,22.30
2019-04-21T19:24:57.204Z,22.30
2019-04-21T19:29:21.078Z,22.20
2019-04-21T19:33:29.804Z,22.10
2019-04-21T19:37:43.191Z,22.00
2019-04-21T19:42:06.592Z,21.90
2019-04-21T19:46:31.521Z,21.80
2019-04-21T19:50:58.944Z,21.70
2019-04-21T19:54:56.733Z,21.60
2019-04-21T19:59:19.594Z,21.50
2019-04-21T20:03:38.691Z,21.40
2019-04-21T20:08:11.349Z,21.30
2019-04-21T20:12:39.920Z,21.20
2019-04-21T20:16:53.188Z,21.10
2019-04-21T20:20:58.386Z,21.00
2019-04-21T20:25:21.266Z,21.00
2019-04-21T20:29:57.528Z,20.80
2019-04-21T20:34:21.231Z,20.80
2019-04-21T20:38:34.018Z,20.70
2019-04-21T20:42:51.061Z,20.70
2019-04-21T20:47:11.463Z,20.60
2019-04-21T20:51:37.901Z,20.50
2019-04-21T20:55:53.247Z,20.40
2019-04-21T21:00:21.780Z,20.40
2019-04-21T21:04:30.076Z,20.20
2019-04-21T21:09:00.212Z,20.10
2019-04-21T21:13:26.562Z,20.00
2019-04-21T21:17:50.362Z,19.90
2019-04-21T21:21:56.290Z,19.80
2019-04-21T21:26:28.268Z,19.70
2019-04-21T21:30:38.574Z,19.70
2019-04-21T21:35:06.273Z,19.60
2019-04-21T21:39:21.495Z,19.50
2019-04-21T21:43:28.941Z,19.40
2019-04-21T21:48:06.990Z,19.30
2019-04-21T21:52:16.866Z,19.20
2019-04-21T21:56:27.284Z,19.10
2019-04-21T22:00:56.687Z,19.00
2019-04-21T22:05:16.575Z,18.90
2019-04-21T22:09:32.283Z,18.90
2019-04-21T22:13:58.836Z,18.80
2019-04-21T22:18:28.689Z,18.70
2019-04-21T22:22:43.854Z,18.60
2019-04-21T22:26:52.527Z,18.50
2019-04-21T22:31:15.444Z,18.50
2019-04-21T22:35:38.930Z,18.40
2019-04-21T22:40:04.480Z,18.30
2019-04-21T22:44:18.835Z,18.30
2019-04-21T22:48:37.202Z,18.20
2019-04-21T22:52:59.472Z,18.10
2019-04-21T22:57:19.840Z,18.10
2019-04-21T23:01:42.402Z,18.00
2019-04-21T23:06:00.532Z,18.00
2019-04-21T23:10:17.527Z,17.90
2019-04-21T23:14:46.826Z,17.80
2019-04-21T23:19:17.271Z,17.70
2019-04-21T23:23:39.758Z,17.60
2019-04-21T23:27:59.124Z,17.50
2019-04-21T23:32:14.938Z,17.40
2019-04-21T23:36:22.625Z,17.40
2019-04-21T23:40:39.755Z,17.30
2019-04-21T23:44:59.661Z,17.30
2019-04-21T23:49:31.959Z,17.20
2019-04-21T23:53:37.504Z,17.10
2019-04-21T23:58:06.059Z,17.00
